Airfield :
LOGIN :

Register | Disclaimer

   EN    FR    IT 

 










Legend :    VFR   Marginal VFR   IFR   Intensive IFR   Very Intensive IFR
Visi :
Ceiling :
>= 8 km
>= 3000ft
5 to 8 km
1000 to 3000 ft
1500m to 5 km
500 to 1000 ft
800 to 1500m
200 to 500 ft
< 800m
< 200 ft
Symbols :   Thunderstorms  Fog  Heavy snow  Heavy precipitations  Wind > 20 kt
SIGMETs :     Misc.  Thunderstorms  Icing  Turbulence  Mountain Waves  Volcanic Ashes







- Airport Elevation : 659 ft
- IATA code : LGG


EBLG - Liège

CURRENT METAR :
  • 262320Z 03006KT CAVOK 16/09 Q1012 NOSIG

EXPIRED METARs :
  • 262250Z 03006KT CAVOK 16/09 Q1012 NOSIG
  • 262220Z 03006KT CAVOK 16/09 Q1012 NOSIG
  • 262150Z 02007KT CAVOK 17/09 Q1012 NOSIG
  • 262120Z 03005KT CAVOK 18/10 Q1012 NOSIG
  • 262050Z 02005KT CAVOK 18/10 Q1012 NOSIG

TAF TAF EBLG
Valid from the 27 at 00:00 until the 28 at 06:00 UTC


262312Z 2700/2806 06005KT CAVOK
TEMPO 2714/2724 4000 SHRA
PROB40
TEMPO 2714/2724 06016G28KT 2500 TSRAGR
No reported NOTAMs for that airfield.



MET'MAP, your aeronautical weather chart ! - Copyright ORBIFLY December 2007 - Disclaimer

ORBIFLY MET'MAP TEAM :

Programming & Development : Alexandra Zaïnal
Concept & Development : Baudouin d'Aumeries
Co-Development & Prog : Marc-Olivier Méhu
Technical & hardware support : Manuel Goepfert

Contact : metmap@orbifly.com




SOURCES & CREDITS :

   NOAA